Aviation Digital Data Service (ADDS)

Output produced by METARs form (0441 UTC 19 August 2019)
found at http://www.aviationweather.gov/metar/data/
 
METAR text: ETHS 190420Z 24006KT 4000 BR SCT060 BKN300 14/13 Q1012 GRN
Conditions at: ETHS (FASSBERG (GER-AF, DE) observed 0420 UTC 19 August 2019
Temperature: 14.0°C (57°F)
Dewpoint: 13.0°C (55°F) [RH = 94%]
Pressure (altimeter): 29.88 inches Hg (1012.0 mb)
Winds: from the WSW (240 degrees) at 7 MPH (6 knots; 3.1 m/s)
Visibility: 2.49 miles (4.01 km)
Ceiling: 30000 feet AGL
Clouds: scattered clouds at 6000 feet AGL
broken clouds at 30000 feet AGL
Weather: BR  (mist)

METAR text: ETHS 190320Z 24008KT 4500 BR BKN060 BKN250 15/14 Q1011 GRN
Conditions at: ETHS (FASSBERG (GER-AF, DE) observed 0320 UTC 19 August 2019
Temperature: 15.0°C (59°F)
Dewpoint: 14.0°C (57°F) [RH = 94%]
Pressure (altimeter): 29.85 inches Hg (1011.0 mb)
Winds: from the WSW (240 degrees) at 9 MPH (8 knots; 4.1 m/s)
Visibility: 2.80 miles (4.51 km)
Ceiling: 6000 feet AGL
Clouds: broken clouds at 6000 feet AGL
broken clouds at 25000 feet AGL
Weather: BR  (mist)

METAR text: ETHS 190220Z 24006KT 5000 -SHRA BR SCT025 BKN040 15/14 Q1011 WHT
Conditions at: ETHS (FASSBERG (GER-AF, DE) observed 0220 UTC 19 August 2019
Temperature: 15.0°C (59°F)
Dewpoint: 14.0°C (57°F) [RH = 94%]
Pressure (altimeter): 29.85 inches Hg (1011.0 mb)
Winds: from the WSW (240 degrees) at 7 MPH (6 knots; 3.1 m/s)
Visibility: 3 miles ( 5 km)
Ceiling: 4000 feet AGL
Clouds: scattered clouds at 2500 feet AGL
broken clouds at 4000 feet AGL
Weather: -SHRA BR  (light rain showers, mist)

METAR text: ETHS 190120Z 23006KT 3000 BR SCT001 SCT080 BKN280 14/14 Q1011 YLO
Conditions at: ETHS (FASSBERG (GER-AF, DE) observed 0120 UTC 19 August 2019
Temperature: 14.0°C (57°F)
Dewpoint: 14.0°C (57°F) [RH = 100%]
Pressure (altimeter): 29.85 inches Hg (1011.0 mb)
Winds: from the SW (230 degrees) at 7 MPH (6 knots; 3.1 m/s)
Visibility: 1.86 miles (2.99 km)
Ceiling: 28000 feet AGL
Clouds: scattered clouds at 100 feet AGL
scattered clouds at 8000 feet AGL
broken clouds at 28000 feet AGL
Weather: BR  (mist)

METAR text: ETHS 190020Z 23006KT 1500 BR BKN001 14/14 Q1010 RED
Conditions at: ETHS (FASSBERG (GER-AF, DE) observed 0020 UTC 19 August 2019
Temperature: 14.0°C (57°F)
Dewpoint: 14.0°C (57°F) [RH = 100%]
Pressure (altimeter): 29.82 inches Hg (1010.0 mb)
Winds: from the SW (230 degrees) at 7 MPH (6 knots; 3.1 m/s)
Visibility: 0.93 miles (1.50 km)
Ceiling: 100 feet AGL
Clouds: broken clouds at 100 feet AGL
Weather: BR  (mist)

METAR text: ETHS 182332Z 21003KT 2500 MIFG BR BKN001 14/13 Q1010 RED
Conditions at: ETHS (FASSBERG (GER-AF, DE) observed 2332 UTC 18 August 2019
Temperature: 14.0°C (57°F)
Dewpoint: 13.0°C (55°F) [RH = 94%]
Pressure (altimeter): 29.82 inches Hg (1010.0 mb)
Winds: from the SSW (210 degrees) at 3 MPH (3 knots; 1.5 m/s)
Visibility: 1.55 miles (2.49 km)
Ceiling: 100 feet AGL
Clouds: broken clouds at 100 feet AGL
Weather: MIFG BR  (shallow fog, mist)

METAR text: ETHS 182320Z 21003KT 7000 MIFG FEW002 SCT240 14/13 Q1010 WHT
Conditions at: ETHS (FASSBERG (GER-AF, DE) observed 2320 UTC 18 August 2019
Temperature: 14.0°C (57°F)
Dewpoint: 13.0°C (55°F) [RH = 94%]
Pressure (altimeter): 29.82 inches Hg (1010.0 mb)
Winds: from the SSW (210 degrees) at 3 MPH (3 knots; 1.5 m/s)
Visibility: 4 miles ( 7 km)
Ceiling: at least 12,000 feet AGL
Clouds: few clouds at 200 feet AGL
scattered clouds at 24000 feet AGL
Weather: MIFG  (shallow fog)

METAR text: ETHS 182220Z 25003KT 9999 BKN050 BKN280 15/14 Q1009 BLU
Conditions at: ETHS (FASSBERG (GER-AF, DE) observed 2220 UTC 18 August 2019
Temperature: 15.0°C (59°F)
Dewpoint: 14.0°C (57°F) [RH = 94%]
Pressure (altimeter): 29.79 inches Hg (1009.0 mb)
Winds: from the WSW (250 degrees) at 3 MPH (3 knots; 1.5 m/s)
Visibility: 6 or more miles (10+ km)
Ceiling: 5000 feet AGL
Clouds: broken clouds at 5000 feet AGL
broken clouds at 28000 feet AGL
Weather: no significant weather observed at this time

METAR text: ETHS 182120Z 25004KT 9999 BKN040 15/14 Q1009 BLU
Conditions at: ETHS (FASSBERG (GER-AF, DE) observed 2120 UTC 18 August 2019
Temperature: 15.0°C (59°F)
Dewpoint: 14.0°C (57°F) [RH = 94%]
Pressure (altimeter): 29.79 inches Hg (1009.0 mb)
Winds: from the WSW (250 degrees) at 5 MPH (4 knots; 2.1 m/s)
Visibility: 6 or more miles (10+ km)
Ceiling: 4000 feet AGL
Clouds: broken clouds at 4000 feet AGL
Weather: no significant weather observed at this time

METAR text: ETHS 182020Z 25006KT 9999 FEW050 BKN260 15/14 Q1009 BLU+
Conditions at: ETHS (FASSBERG (GER-AF, DE) observed 2020 UTC 18 August 2019
Temperature: 15.0°C (59°F)
Dewpoint: 14.0°C (57°F) [RH = 94%]
Pressure (altimeter): 29.79 inches Hg (1009.0 mb)
Winds: from the WSW (250 degrees) at 7 MPH (6 knots; 3.1 m/s)
Visibility: 6 or more miles (10+ km)
Ceiling: 26000 feet AGL
Clouds: few clouds at 5000 feet AGL
broken clouds at 26000 feet AGL
Weather: no significant weather observed at this time

METAR text: ETHS 181920Z 24004KT 9999 FEW040 BKN240 15/14 Q1008 BLU+
Conditions at: ETHS (FASSBERG (GER-AF, DE) observed 1920 UTC 18 August 2019
Temperature: 15.0°C (59°F)
Dewpoint: 14.0°C (57°F) [RH = 94%]
Pressure (altimeter): 29.76 inches Hg (1008.0 mb)
Winds: from the WSW (240 degrees) at 5 MPH (4 knots; 2.1 m/s)
Visibility: 6 or more miles (10+ km)
Ceiling: 24000 feet AGL
Clouds: few clouds at 4000 feet AGL
broken clouds at 24000 feet AGL
Weather: no significant weather observed at this time

METAR text: ETHS 181820Z 27008KT 9999 FEW008 SCT040 BKN240 16/15 Q1007 BLU+
Conditions at: ETHS (FASSBERG (GER-AF, DE) observed 1820 UTC 18 August 2019
Temperature: 16.0°C (61°F)
Dewpoint: 15.0°C (59°F) [RH = 94%]
Pressure (altimeter): 29.73 inches Hg (1007.0 mb)
Winds: from the W (270 degrees) at 9 MPH (8 knots; 4.1 m/s)
Visibility: 6 or more miles (10+ km)
Ceiling: 24000 feet AGL
Clouds: few clouds at 800 feet AGL
scattered clouds at 4000 feet AGL
broken clouds at 24000 feet AGL
Weather: no significant weather observed at this time

METAR text: ETHS 181720Z 27007KT 8000 SCT005 BKN020 17/15 Q1007 WHT
Conditions at: ETHS (FASSBERG (GER-AF, DE) observed 1720 UTC 18 August 2019
Temperature: 17.0°C (63°F)
Dewpoint: 15.0°C (59°F) [RH = 88%]
Pressure (altimeter): 29.73 inches Hg (1007.0 mb)
Winds: from the W (270 degrees) at 8 MPH (7 knots; 3.6 m/s)
Visibility: 5 miles ( 8 km)
Ceiling: 2000 feet AGL
Clouds: scattered clouds at 500 feet AGL
broken clouds at 2000 feet AGL
Weather: no significant weather observed at this time

METAR text: ETHS 181620Z 29005KT 9999 SCT005 BKN015 17/16 Q1006 WHT
Conditions at: ETHS (FASSBERG (GER-AF, DE) observed 1620 UTC 18 August 2019
Temperature: 17.0°C (63°F)
Dewpoint: 16.0°C (61°F) [RH = 94%]
Pressure (altimeter): 29.70 inches Hg (1006.0 mb)
Winds: from the WNW (290 degrees) at 6 MPH (5 knots; 2.6 m/s)
Visibility: 6 or more miles (10+ km)
Ceiling: 1500 feet AGL
Clouds: scattered clouds at 500 feet AGL
broken clouds at 1500 feet AGL
Weather: no significant weather observed at this time

METAR text: ETHS 181520Z 28005KT 9999 FEW005 BKN015 17/16 Q1005 WHT
Conditions at: ETHS (FASSBERG (GER-AF, DE) observed 1520 UTC 18 August 2019
Temperature: 17.0°C (63°F)
Dewpoint: 16.0°C (61°F) [RH = 94%]
Pressure (altimeter): 29.68 inches Hg (1005.0 mb)
Winds: from the W (280 degrees) at 6 MPH (5 knots; 2.6 m/s)
Visibility: 6 or more miles (10+ km)
Ceiling: 1500 feet AGL
Clouds: few clouds at 500 feet AGL
broken clouds at 1500 feet AGL
Weather: no significant weather observed at this time

METAR text: ETHS 181420Z VRB02KT 5000 -DZRA SCT005 BKN025 17/15 Q1004 WHT
Conditions at: ETHS (FASSBERG (GER-AF, DE) observed 1420 UTC 18 August 2019
Temperature: 17.0°C (63°F)
Dewpoint: 15.0°C (59°F) [RH = 88%]
Pressure (altimeter): 29.65 inches Hg (1004.0 mb)
Winds: variable direction winds at 2 MPH (2 knots; 1.0 m/s)
Visibility: 3 miles ( 5 km)
Ceiling: 2500 feet AGL
Clouds: scattered clouds at 500 feet AGL
broken clouds at 2500 feet AGL
Weather: -DZ -RA  (light drizzle, light rain)

METAR text: ETHS 181320Z 30004KT 4000 -DZRA SCT005 BKN025 16/15 Q1005 GRN
Conditions at: ETHS (FASSBERG (GER-AF, DE) observed 1320 UTC 18 August 2019
Temperature: 16.0°C (61°F)
Dewpoint: 15.0°C (59°F) [RH = 94%]
Pressure (altimeter): 29.68 inches Hg (1005.0 mb)
Winds: from the WNW (300 degrees) at 5 MPH (4 knots; 2.1 m/s)
Visibility: 2.49 miles (4.01 km)
Ceiling: 2500 feet AGL
Clouds: scattered clouds at 500 feet AGL
broken clouds at 2500 feet AGL
Weather: -DZ -RA  (light drizzle, light rain)

METAR text: ETHS 181220Z 28007KT 5000 -DZRA SCT005 BKN020 17/15 Q1005 WHT
Conditions at: ETHS (FASSBERG (GER-AF, DE) observed 1220 UTC 18 August 2019
Temperature: 17.0°C (63°F)
Dewpoint: 15.0°C (59°F) [RH = 88%]
Pressure (altimeter): 29.68 inches Hg (1005.0 mb)
Winds: from the W (280 degrees) at 8 MPH (7 knots; 3.6 m/s)
Visibility: 3 miles ( 5 km)
Ceiling: 2000 feet AGL
Clouds: scattered clouds at 500 feet AGL
broken clouds at 2000 feet AGL
Weather: -DZ -RA  (light drizzle, light rain)

METAR text: ETHS 181120Z 26010KT 7000 SCT007 BKN020 18/16 Q1005 WHT
Conditions at: ETHS (FASSBERG (GER-AF, DE) observed 1120 UTC 18 August 2019
Temperature: 18.0°C (64°F)
Dewpoint: 16.0°C (61°F) [RH = 88%]
Pressure (altimeter): 29.68 inches Hg (1005.0 mb)
Winds: from the W (260 degrees) at 12 MPH (10 knots; 5.1 m/s)
Visibility: 4 miles ( 7 km)
Ceiling: 2000 feet AGL
Clouds: scattered clouds at 700 feet AGL
broken clouds at 2000 feet AGL
Weather: no significant weather observed at this time

METAR text: ETHS 181020Z 24010KT 5000 -DZRA BR SCT007 BKN020 17/16 Q1005 WHT
Conditions at: ETHS (FASSBERG (GER-AF, DE) observed 1020 UTC 18 August 2019
Temperature: 17.0°C (63°F)
Dewpoint: 16.0°C (61°F) [RH = 94%]
Pressure (altimeter): 29.68 inches Hg (1005.0 mb)
Winds: from the WSW (240 degrees) at 12 MPH (10 knots; 5.1 m/s)
Visibility: 3 miles ( 5 km)
Ceiling: 2000 feet AGL
Clouds: scattered clouds at 700 feet AGL
broken clouds at 2000 feet AGL
Weather: -DZ -RA BR  (light drizzle, light rain, mist)

METAR text: ETHS 180935Z 23010KT 4000 -DZRA SCT007 BKN040 18/16 Q1005 GRN
Conditions at: ETHS (FASSBERG (GER-AF, DE) observed 0935 UTC 18 August 2019
Temperature: 18.0°C (64°F)
Dewpoint: 16.0°C (61°F) [RH = 88%]
Pressure (altimeter): 29.68 inches Hg (1005.0 mb)
Winds: from the SW (230 degrees) at 12 MPH (10 knots; 5.1 m/s)
Visibility: 2.49 miles (4.01 km)
Ceiling: 4000 feet AGL
Clouds: scattered clouds at 700 feet AGL
broken clouds at 4000 feet AGL
Weather: -DZ -RA  (light drizzle, light rain)

METAR text: ETHS 180920Z 23010KT 4000 -DZRA BR SCT007 BKN045 17/16 Q1005 GRN
Conditions at: ETHS (FASSBERG (GER-AF, DE) observed 0920 UTC 18 August 2019
Temperature: 17.0°C (63°F)
Dewpoint: 16.0°C (61°F) [RH = 94%]
Pressure (altimeter): 29.68 inches Hg (1005.0 mb)
Winds: from the SW (230 degrees) at 12 MPH (10 knots; 5.1 m/s)
Visibility: 2.49 miles (4.01 km)
Ceiling: 4500 feet AGL
Clouds: scattered clouds at 700 feet AGL
broken clouds at 4500 feet AGL
Weather: -DZ -RA BR  (light drizzle, light rain, mist)

METAR text: ETHS 180844Z 23011G24KT 3500 -DZRA BR SCT007 BKN015 BKN045 18/17 Q1005 RERA YLO
Conditions at: ETHS (FASSBERG (GER-AF, DE) observed 0844 UTC 18 August 2019
Temperature: 18.0°C (64°F)
Dewpoint: 17.0°C (63°F) [RH = 94%]
Pressure (altimeter): 29.68 inches Hg (1005.0 mb)
Winds: from the SW (230 degrees) at 13 MPH (11 knots; 5.7 m/s)
gusting to 28 MPH (24 knots; 12.3 m/s)
Visibility: 2.17 miles (3.49 km)
Ceiling: 1500 feet AGL
Clouds: scattered clouds at 700 feet AGL
broken clouds at 1500 feet AGL
broken clouds at 4500 feet AGL
Weather: -DZ -RA BR  (light drizzle, light rain, mist)

METAR text: ETHS 180835Z 22008KT 2500 RADZ BR BKN007 BKN015 19/17 Q1005 YLO
Conditions at: ETHS (FASSBERG (GER-AF, DE) observed 0835 UTC 18 August 2019
Temperature: 19.0°C (66°F)
Dewpoint: 17.0°C (63°F) [RH = 88%]
Pressure (altimeter): 29.68 inches Hg (1005.0 mb)
Winds: from the SW (220 degrees) at 9 MPH (8 knots; 4.1 m/s)
Visibility: 1.55 miles (2.49 km)
Ceiling: 700 feet AGL
Clouds: broken clouds at 700 feet AGL
broken clouds at 1500 feet AGL
Weather: RA DZ BR  (moderate rain, moderate drizzle, mist)

METAR text: ETHS 180820Z 21005KT 7000 SCT007 BKN015 BKN070 19/17 Q1005 WHT
Conditions at: ETHS (FASSBERG (GER-AF, DE) observed 0820 UTC 18 August 2019
Temperature: 19.0°C (66°F)
Dewpoint: 17.0°C (63°F) [RH = 88%]
Pressure (altimeter): 29.68 inches Hg (1005.0 mb)
Winds: from the SSW (210 degrees) at 6 MPH (5 knots; 2.6 m/s)
Visibility: 4 miles ( 7 km)
Ceiling: 1500 feet AGL
Clouds: scattered clouds at 700 feet AGL
broken clouds at 1500 feet AGL
broken clouds at 7000 feet AGL
Weather: no significant weather observed at this time

METAR text: ETHS 180720Z VRB01KT 5000 -DZRA BR SCT002 BKN007 BKN012 17/16 Q1006 GRN
Conditions at: ETHS (FASSBERG (GER-AF, DE) observed 0720 UTC 18 August 2019
Temperature: 17.0°C (63°F)
Dewpoint: 16.0°C (61°F) [RH = 94%]
Pressure (altimeter): 29.70 inches Hg (1006.0 mb)
Winds: variable direction winds at 1 MPH (1 knots; 0.5 m/s)
Visibility: 3 miles ( 5 km)
Ceiling: 700 feet AGL
Clouds: scattered clouds at 200 feet AGL
broken clouds at 700 feet AGL
broken clouds at 1200 feet AGL
Weather: -DZ -RA BR  (light drizzle, light rain, mist)

METAR text: ETHS 180620Z 32003KT 3000 -DZRA BR SCT002 OVC006 16/15 Q1006 YLO
Conditions at: ETHS (FASSBERG (GER-AF, DE) observed 0620 UTC 18 August 2019
Temperature: 16.0°C (61°F)
Dewpoint: 15.0°C (59°F) [RH = 94%]
Pressure (altimeter): 29.70 inches Hg (1006.0 mb)
Winds: from the NW (320 degrees) at 3 MPH (3 knots; 1.5 m/s)
Visibility: 1.86 miles (2.99 km)
Ceiling: 600 feet AGL
Clouds: scattered clouds at 200 feet AGL
overcast cloud deck at 600 feet AGL
Weather: -DZ -RA BR  (light drizzle, light rain, mist)

METAR text: ETHS 180520Z 31001KT 2500 -DZRA BR SCT002 BKN006 16/16 Q1006 REDZ YLO
Conditions at: ETHS (FASSBERG (GER-AF, DE) observed 0520 UTC 18 August 2019
Temperature: 16.0°C (61°F)
Dewpoint: 16.0°C (61°F) [RH = 100%]
Pressure (altimeter): 29.70 inches Hg (1006.0 mb)
Winds: from the NW (310 degrees) at 1 MPH (1 knots; 0.5 m/s)
Visibility: 1.55 miles (2.49 km)
Ceiling: 600 feet AGL
Clouds: scattered clouds at 200 feet AGL
broken clouds at 600 feet AGL
Weather: -DZ -RA BR  (light drizzle, light rain, mist)

METAR text: ETHS 180420Z 29005KT 2500 DZ BKN005 BKN010 17/16 Q1006 YLO
Conditions at: ETHS (FASSBERG (GER-AF, DE) observed 0420 UTC 18 August 2019
Temperature: 17.0°C (63°F)
Dewpoint: 16.0°C (61°F) [RH = 94%]
Pressure (altimeter): 29.70 inches Hg (1006.0 mb)
Winds: from the WNW (290 degrees) at 6 MPH (5 knots; 2.6 m/s)
Visibility: 1.55 miles (2.49 km)
Ceiling: 500 feet AGL
Clouds: broken clouds at 500 feet AGL
broken clouds at 1000 feet AGL
Weather: DZ  (moderate drizzle)

METAR text: ETHS 180359Z 24006KT 2500 DZ SCT009 BKN013 18/16 Q1006 YLO
Conditions at: ETHS (FASSBERG (GER-AF, DE) observed 0359 UTC 18 August 2019
Temperature: 18.0°C (64°F)
Dewpoint: 16.0°C (61°F) [RH = 88%]
Pressure (altimeter): 29.70 inches Hg (1006.0 mb)
Winds: from the WSW (240 degrees) at 7 MPH (6 knots; 3.1 m/s)
Visibility: 1.55 miles (2.49 km)
Ceiling: 1300 feet AGL
Clouds: scattered clouds at 900 feet AGL
broken clouds at 1300 feet AGL
Weather: DZ  (moderate drizzle)

METAR text: ETHS 180356Z 23006KT 7000 -DZ SCT009 BKN014 18/16 Q1006 GRN
Conditions at: ETHS (FASSBERG (GER-AF, DE) observed 0356 UTC 18 August 2019
Temperature: 18.0°C (64°F)
Dewpoint: 16.0°C (61°F) [RH = 88%]
Pressure (altimeter): 29.70 inches Hg (1006.0 mb)
Winds: from the SW (230 degrees) at 7 MPH (6 knots; 3.1 m/s)
Visibility: 4 miles ( 7 km)
Ceiling: 1400 feet AGL
Clouds: scattered clouds at 900 feet AGL
broken clouds at 1400 feet AGL
Weather: -DZ  (light drizzle)

METAR text: ETHS 180320Z 21005KT 9999 BKN014 18/16 Q1006 GRN
Conditions at: ETHS (FASSBERG (GER-AF, DE) observed 0320 UTC 18 August 2019
Temperature: 18.0°C (64°F)
Dewpoint: 16.0°C (61°F) [RH = 88%]
Pressure (altimeter): 29.70 inches Hg (1006.0 mb)
Winds: from the SSW (210 degrees) at 6 MPH (5 knots; 2.6 m/s)
Visibility: 6 or more miles (10+ km)
Ceiling: 1400 feet AGL
Clouds: broken clouds at 1400 feet AGL
Weather: no significant weather observed at this time

METAR text: ETHS 180220Z 21006KT 9999 BKN017 18/16 Q1006 WHT
Conditions at: ETHS (FASSBERG (GER-AF, DE) observed 0220 UTC 18 August 2019
Temperature: 18.0°C (64°F)
Dewpoint: 16.0°C (61°F) [RH = 88%]
Pressure (altimeter): 29.70 inches Hg (1006.0 mb)
Winds: from the SSW (210 degrees) at 7 MPH (6 knots; 3.1 m/s)
Visibility: 6 or more miles (10+ km)
Ceiling: 1700 feet AGL
Clouds: broken clouds at 1700 feet AGL
Weather: no significant weather observed at this time

METAR text: ETHS 180120Z 20005KT 9999 BKN019 18/16 Q1007 WHT
Conditions at: ETHS (FASSBERG (GER-AF, DE) observed 0120 UTC 18 August 2019
Temperature: 18.0°C (64°F)
Dewpoint: 16.0°C (61°F) [RH = 88%]
Pressure (altimeter): 29.73 inches Hg (1007.0 mb)
Winds: from the SSW (200 degrees) at 6 MPH (5 knots; 2.6 m/s)
Visibility: 6 or more miles (10+ km)
Ceiling: 1900 feet AGL
Clouds: broken clouds at 1900 feet AGL
Weather: no significant weather observed at this time

METAR text: ETHS 180020Z 21005KT 9999 FEW022 BKN030 18/16 Q1007 BLU
Conditions at: ETHS (FASSBERG (GER-AF, DE) observed 0020 UTC 18 August 2019
Temperature: 18.0°C (64°F)
Dewpoint: 16.0°C (61°F) [RH = 88%]
Pressure (altimeter): 29.73 inches Hg (1007.0 mb)
Winds: from the SSW (210 degrees) at 6 MPH (5 knots; 2.6 m/s)
Visibility: 6 or more miles (10+ km)
Ceiling: 3000 feet AGL
Clouds: few clouds at 2200 feet AGL
broken clouds at 3000 feet AGL
Weather: no significant weather observed at this time

METAR text: ETHS 172320Z 21006KT 9999 SCT019 BKN040 18/16 Q1007 BLU
Conditions at: ETHS (FASSBERG (GER-AF, DE) observed 2320 UTC 17 August 2019
Temperature: 18.0°C (64°F)
Dewpoint: 16.0°C (61°F) [RH = 88%]
Pressure (altimeter): 29.73 inches Hg (1007.0 mb)
Winds: from the SSW (210 degrees) at 7 MPH (6 knots; 3.1 m/s)
Visibility: 6 or more miles (10+ km)
Ceiling: 4000 feet AGL
Clouds: scattered clouds at 1900 feet AGL
broken clouds at 4000 feet AGL
Weather: no significant weather observed at this time

METAR text: ETHS 172220Z 22004KT 9999 SCT030 BKN042 18/16 Q1007 BLU
Conditions at: ETHS (FASSBERG (GER-AF, DE) observed 2220 UTC 17 August 2019
Temperature: 18.0°C (64°F)
Dewpoint: 16.0°C (61°F) [RH = 88%]
Pressure (altimeter): 29.73 inches Hg (1007.0 mb)
Winds: from the SW (220 degrees) at 5 MPH (4 knots; 2.1 m/s)
Visibility: 6 or more miles (10+ km)
Ceiling: 4200 feet AGL
Clouds: scattered clouds at 3000 feet AGL
broken clouds at 4200 feet AGL
Weather: no significant weather observed at this time

METAR text: ETHS 172120Z 22004KT 8000 SCT020 BKN030 18/16 Q1008 BLU
Conditions at: ETHS (FASSBERG (GER-AF, DE) observed 2120 UTC 17 August 2019
Temperature: 18.0°C (64°F)
Dewpoint: 16.0°C (61°F) [RH = 88%]
Pressure (altimeter): 29.76 inches Hg (1008.0 mb)
Winds: from the SW (220 degrees) at 5 MPH (4 knots; 2.1 m/s)
Visibility: 5 miles ( 8 km)
Ceiling: 3000 feet AGL
Clouds: scattered clouds at 2000 feet AGL
broken clouds at 3000 feet AGL
Weather: no significant weather observed at this time

METAR text: ETHS 172020Z 18004KT 9999 BKN033 19/15 Q1007 BLU
Conditions at: ETHS (FASSBERG (GER-AF, DE) observed 2020 UTC 17 August 2019
Temperature: 19.0°C (66°F)
Dewpoint: 15.0°C (59°F) [RH = 78%]
Pressure (altimeter): 29.73 inches Hg (1007.0 mb)
Winds: from the S (180 degrees) at 5 MPH (4 knots; 2.1 m/s)
Visibility: 6 or more miles (10+ km)
Ceiling: 3300 feet AGL
Clouds: broken clouds at 3300 feet AGL
Weather: no significant weather observed at this time

METAR text: ETHS 171920Z 17003KT 9999 BKN037 19/16 Q1007 BLU
Conditions at: ETHS (FASSBERG (GER-AF, DE) observed 1920 UTC 17 August 2019
Temperature: 19.0°C (66°F)
Dewpoint: 16.0°C (61°F) [RH = 83%]
Pressure (altimeter): 29.73 inches Hg (1007.0 mb)
Winds: from the S (170 degrees) at 3 MPH (3 knots; 1.5 m/s)
Visibility: 6 or more miles (10+ km)
Ceiling: 3700 feet AGL
Clouds: broken clouds at 3700 feet AGL
Weather: no significant weather observed at this time

METAR text: ETHS 171820Z 20003KT 9999 BKN037 20/15 Q1007 BLU
Conditions at: ETHS (FASSBERG (GER-AF, DE) observed 1820 UTC 17 August 2019
Temperature: 20.0°C (68°F)
Dewpoint: 15.0°C (59°F) [RH = 73%]
Pressure (altimeter): 29.73 inches Hg (1007.0 mb)
Winds: from the SSW (200 degrees) at 3 MPH (3 knots; 1.5 m/s)
Visibility: 6 or more miles (10+ km)
Ceiling: 3700 feet AGL
Clouds: broken clouds at 3700 feet AGL
Weather: no significant weather observed at this time

METAR text: ETHS 171720Z 28005KT 9999 SCT030 BKN050 20/15 Q1008 BLU
Conditions at: ETHS (FASSBERG (GER-AF, DE) observed 1720 UTC 17 August 2019
Temperature: 20.0°C (68°F)
Dewpoint: 15.0°C (59°F) [RH = 73%]
Pressure (altimeter): 29.76 inches Hg (1008.0 mb)
Winds: from the W (280 degrees) at 6 MPH (5 knots; 2.6 m/s)
Visibility: 6 or more miles (10+ km)
Ceiling: 5000 feet AGL
Clouds: scattered clouds at 3000 feet AGL
broken clouds at 5000 feet AGL
Weather: no significant weather observed at this time

Forecast for: ETHS (FASSBERG (GER-AF, DE)
Text: TAF ETHS 190419Z 1905/1914 24005KT 5000 BR SCT060
Forecast period: 0500 to 1400 UTC 19 August 2019
Forecast type: FROM: standard forecast or significant change
Winds: from the WSW (240 degrees) at 6 MPH (5 knots; 2.6 m/s)
Visibility: 3 miles (5 km)
Ceiling: at least 12,000 feet AGL
Clouds: scattered clouds at 6000 feet AGL
Weather: BR  (mist)
Text: BECMG 1905/1907 25012KT 9999 NSW SCT020
Forecast period: 0500 to 1400 UTC 19 August 2019
Forecast type: BECOMING: Conditions expected to become as follows by 0700 UTC 19 August 2019
Winds: from the WSW (250 degrees) at 14 MPH (12 knots; 6.2 m/s)
Visibility: 6 or more miles 10+ km)
Ceiling: at least 12,000 feet AGL
Clouds: scattered clouds at 2000 feet AGL
Weather: NSW  (no significant weather)
Text: TEMPO 1909/1914 26015G25KT 9999 NSW SCT025 BKN040
Forecast period: 0900 to 1400 UTC 19 August 2019
Forecast type: TEMPORARY: The following changes expected for less than half the time period
Winds: from the W (260 degrees) at 17 MPH (15 knots; 7.7 m/s)
gusting to 29 MPH (25 knots; 12.9 m/s)
Visibility: 6 or more miles 10+ km)
Ceiling: 4000 feet AGL
Clouds: scattered clouds at 2500 feet AGL
broken clouds at 4000 feet AGL
Weather: NSW  (no significant weather)